createdAt,value
2022-10-22T00:02:19.884Z,80.91
2022-10-22T00:04:47.989Z,81.64
2022-10-22T00:07:15.446Z,81.10
2022-10-22T00:09:41.985Z,81.72
2022-10-22T00:12:08.773Z,81.33
2022-10-22T00:14:35.432Z,80.90
2022-10-22T00:17:02.010Z,81.16
2022-10-22T00:19:28.537Z,80.24
2022-10-22T00:21:55.130Z,81.15
2022-10-22T00:24:21.670Z,81.88
2022-10-22T00:26:48.133Z,80.84
2022-10-22T00:29:14.592Z,81.06
2022-10-22T00:31:41.080Z,80.86
2022-10-22T00:34:07.535Z,82.21
2022-10-22T00:36:34.047Z,81.28
2022-10-22T00:39:00.493Z,81.39
2022-10-22T00:41:26.964Z,80.93
2022-10-22T00:44:02.614Z,80.67
2022-10-22T00:46:29.505Z,81.03
2022-10-22T00:48:57.398Z,80.32
2022-10-22T00:51:26.441Z,80.33
2022-10-22T00:53:56.138Z,79.42
2022-10-22T00:56:23.853Z,79.92
2022-10-22T00:58:55.455Z,79.86
2022-10-22T01:01:27.530Z,80.80
2022-10-22T01:03:54.452Z,80.35
2022-10-22T01:06:27.252Z,80.50
2022-10-22T01:09:33.479Z,79.56
2022-10-22T01:12:29.514Z,79.47
2022-10-22T01:15:05.160Z,79.98
2022-10-22T01:17:58.129Z,80.27
2022-10-22T01:20:49.484Z,81.67
2022-10-22T01:23:37.850Z,81.02
2022-10-22T01:26:07.245Z,80.85
2022-10-22T01:28:50.132Z,80.99
2022-10-22T01:31:18.250Z,80.33
2022-10-22T01:33:46.086Z,81.03
2022-10-22T01:36:13.116Z,81.68
2022-10-22T01:38:40.071Z,81.46
2022-10-22T01:41:07.284Z,81.04
2022-10-22T01:43:33.840Z,80.72
2022-10-22T01:46:03.242Z,81.50
2022-10-22T01:48:57.970Z,80.17
2022-10-22T01:52:06.810Z,81.43
2022-10-22T01:54:41.894Z,80.67
2022-10-22T01:57:08.403Z,81.26
2022-10-22T01:59:45.571Z,80.82
2022-10-22T02:02:33.552Z,80.45
2022-10-22T02:05:13.421Z,82.00
2022-10-22T02:07:44.348Z,81.28
2022-10-22T02:10:11.950Z,81.33
2022-10-22T02:12:39.608Z,81.65
2022-10-22T02:15:06.943Z,81.51
2022-10-22T02:17:35.266Z,82.11
2022-10-22T02:20:16.568Z,81.94
2022-10-22T02:22:43.598Z,81.31
2022-10-22T02:25:11.101Z,80.57
2022-10-22T02:27:50.525Z,79.87
2022-10-22T02:30:19.298Z,80.10
2022-10-22T02:32:58.029Z,81.53
2022-10-22T02:35:26.844Z,81.73
2022-10-22T02:37:54.300Z,80.04
2022-10-22T02:40:21.317Z,81.47
2022-10-22T02:42:48.972Z,81.62
2022-10-22T02:45:16.658Z,80.79
2022-10-22T02:47:43.193Z,80.12
2022-10-22T02:50:10.505Z,80.06
2022-10-22T02:52:37.799Z,80.39
2022-10-22T02:55:05.440Z,79.59
2022-10-22T02:57:32.159Z,79.60
2022-10-22T02:59:58.623Z,80.72
2022-10-22T03:02:25.145Z,80.27
2022-10-22T03:04:51.598Z,80.32
2022-10-22T03:07:18.104Z,80.55
2022-10-22T03:09:44.612Z,80.48
2022-10-22T03:12:11.135Z,79.39
2022-10-22T03:14:37.564Z,78.97
2022-10-22T03:17:04.033Z,79.49
2022-10-22T03:19:30.526Z,79.37
2022-10-22T03:22:01.427Z,79.01
2022-10-22T03:24:40.362Z,79.31
2022-10-22T03:27:06.848Z,79.72
2022-10-22T03:29:36.613Z,80.37
2022-10-22T03:32:03.481Z,79.54
2022-10-22T03:34:29.978Z,78.97
2022-10-22T03:36:57.654Z,79.93
2022-10-22T03:39:24.145Z,80.49
2022-10-22T03:41:51.441Z,80.80
2022-10-22T03:44:18.234Z,80.79
2022-10-22T03:46:45.019Z,81.18
2022-10-22T03:49:11.745Z,81.62
2022-10-22T03:51:38.280Z,81.32
2022-10-22T03:54:05.061Z,81.22
2022-10-22T03:56:31.555Z,82.41
2022-10-22T03:58:59.902Z,83.48
2022-10-22T04:01:27.698Z,83.05
2022-10-22T04:03:54.663Z,82.08
2022-10-22T04:06:21.431Z,83.62
2022-10-22T04:08:48.177Z,82.27
2022-10-22T04:11:15.766Z,82.28
2022-10-22T04:13:42.717Z,81.11
2022-10-22T04:16:19.490Z,81.65
2022-10-22T04:18:47.277Z,81.50
2022-10-22T04:21:15.435Z,83.22
2022-10-22T04:23:46.989Z,83.42
2022-10-22T04:26:13.952Z,83.15
2022-10-22T04:28:40.839Z,83.93
2022-10-22T04:31:09.290Z,83.69
2022-10-22T04:33:35.849Z,83.97
2022-10-22T04:36:10.001Z,83.25
2022-10-22T04:38:36.449Z,83.03
2022-10-22T04:41:16.941Z,83.28
2022-10-22T04:43:44.252Z,82.49
2022-10-22T04:46:11.859Z,81.93
2022-10-22T04:48:40.018Z,82.31
2022-10-22T04:51:07.927Z,83.26
2022-10-22T04:53:37.742Z,83.09
2022-10-22T04:56:13.419Z,83.18
2022-10-22T04:58:39.922Z,82.66
2022-10-22T05:01:20.622Z,82.69
2022-10-22T05:03:49.101Z,82.04
2022-10-22T05:06:15.996Z,82.70
2022-10-22T05:08:43.598Z,81.78
2022-10-22T05:11:15.306Z,82.63
2022-10-22T05:13:41.832Z,81.34
2022-10-22T05:16:08.406Z,82.30
2022-10-22T05:18:39.356Z,81.72
2022-10-22T05:21:09.905Z,82.04
2022-10-22T05:23:36.380Z,81.64
2022-10-22T05:26:07.408Z,82.35
2022-10-22T05:28:34.527Z,81.57
2022-10-22T05:31:01.615Z,81.54
2022-10-22T05:33:30.005Z,81.49
2022-10-22T05:35:56.925Z,81.45
2022-10-22T05:38:23.917Z,81.93
2022-10-22T05:41:00.881Z,81.24
2022-10-22T05:43:27.740Z,81.20
2022-10-22T05:45:54.205Z,80.68
2022-10-22T05:48:20.686Z,81.36
2022-10-22T05:50:50.665Z,81.02
2022-10-22T05:53:18.552Z,81.42
2022-10-22T05:55:45.676Z,81.09
2022-10-22T05:58:12.620Z,81.08
2022-10-22T06:00:39.129Z,80.70
2022-10-22T06:03:05.615Z,81.71
2022-10-22T06:05:36.172Z,81.93
2022-10-22T06:08:02.752Z,83.48
2022-10-22T06:10:29.205Z,82.52
2022-10-22T06:12:55.667Z,82.86
2022-10-22T06:15:22.104Z,82.06
2022-10-22T06:17:48.647Z,83.48
2022-10-22T06:20:15.223Z,82.69
2022-10-22T06:22:41.814Z,82.51
2022-10-22T06:25:08.910Z,82.13
2022-10-22T06:27:35.420Z,81.69
2022-10-22T06:30:01.877Z,81.99
2022-10-22T06:32:28.361Z,81.56
2022-10-22T06:34:54.809Z,82.09
2022-10-22T06:37:21.285Z,82.27
2022-10-22T06:39:47.709Z,83.06
2022-10-22T06:42:14.529Z,81.73
2022-10-22T06:44:40.985Z,81.81
2022-10-22T06:47:07.477Z,81.65
2022-10-22T06:49:33.961Z,81.10
2022-10-22T06:52:00.420Z,81.15
2022-10-22T06:54:26.868Z,81.60
2022-10-22T06:56:53.364Z,81.58
2022-10-22T06:59:19.791Z,82.37
2022-10-22T07:01:46.358Z,81.79
2022-10-22T07:04:12.941Z,81.25
2022-10-22T07:06:39.428Z,81.71
2022-10-22T07:09:05.998Z,82.58
2022-10-22T07:11:43.941Z,83.93
2022-10-22T07:14:11.096Z,83.15
2022-10-22T07:16:37.924Z,84.90
2022-10-22T07:19:05.157Z,84.28
2022-10-22T07:21:32.030Z,83.80
2022-10-22T07:23:59.318Z,85.60
2022-10-22T07:26:28.502Z,85.30
2022-10-22T07:28:55.064Z,85.21
2022-10-22T07:31:21.504Z,84.03
2022-10-22T07:33:48.056Z,84.64
2022-10-22T07:36:18.037Z,85.14
2022-10-22T07:38:46.609Z,84.66
2022-10-22T07:41:14.597Z,85.03
2022-10-22T07:43:41.140Z,84.45
2022-10-22T07:46:08.822Z,83.52
2022-10-22T07:48:36.519Z,83.17
2022-10-22T07:51:03.250Z,83.48
2022-10-22T07:53:30.124Z,83.03
2022-10-22T07:55:56.884Z,83.58
2022-10-22T07:58:23.801Z,85.94
2022-10-22T08:00:50.921Z,84.67
2022-10-22T08:03:18.064Z,83.65
2022-10-22T08:05:44.505Z,83.34
2022-10-22T08:08:12.138Z,81.60
2022-10-22T08:10:39.052Z,81.37
2022-10-22T08:13:05.945Z,81.00
2022-10-22T08:15:32.404Z,81.51
2022-10-22T08:17:58.869Z,82.49
2022-10-22T08:20:25.316Z,82.98
2022-10-22T08:22:51.954Z,82.84
2022-10-22T08:25:18.973Z,82.91
2022-10-22T08:27:45.837Z,83.38
2022-10-22T08:30:13.101Z,83.76
2022-10-22T08:32:39.668Z,83.29
2022-10-22T08:35:06.330Z,83.84
2022-10-22T08:37:32.934Z,85.44
2022-10-22T08:39:59.415Z,85.37
2022-10-22T08:42:35.180Z,84.79
2022-10-22T08:45:20.619Z,83.83
2022-10-22T08:48:09.023Z,84.90
2022-10-22T08:50:45.941Z,84.36
2022-10-22T08:53:21.685Z,82.95
2022-10-22T08:55:49.960Z,83.79
2022-10-22T08:58:31.552Z,82.35
2022-10-22T09:01:13.838Z,83.24
2022-10-22T09:03:51.233Z,83.09
2022-10-22T09:06:22.033Z,83.41
2022-10-22T09:08:48.759Z,84.12
2022-10-22T09:11:27.511Z,85.05
2022-10-22T09:13:55.958Z,84.51
2022-10-22T09:16:31.421Z,83.74
2022-10-22T09:19:18.547Z,82.88
2022-10-22T09:22:30.919Z,84.46
2022-10-22T09:25:20.965Z,84.35
2022-10-22T09:27:48.253Z,82.41
2022-10-22T09:30:21.913Z,81.48
2022-10-22T09:32:52.230Z,80.94
2022-10-22T09:35:23.040Z,82.07
2022-10-22T09:37:51.929Z,82.61
2022-10-22T09:40:18.895Z,81.98
2022-10-22T09:42:47.232Z,81.33
2022-10-22T09:45:23.567Z,80.43
2022-10-22T09:48:04.813Z,80.89
2022-10-22T09:50:44.917Z,80.95
2022-10-22T09:53:13.475Z,80.32
2022-10-22T09:55:41.809Z,80.72
2022-10-22T09:58:11.580Z,81.53
2022-10-22T10:00:44.721Z,79.93
2022-10-22T10:03:19.503Z,79.55
2022-10-22T10:05:52.816Z,78.87
2022-10-22T10:08:19.615Z,79.77
2022-10-22T10:10:52.539Z,80.01
2022-10-22T10:13:57.357Z,78.58
2022-10-22T10:16:30.203Z,78.53
2022-10-22T10:18:57.750Z,77.77
2022-10-22T10:21:27.194Z,77.30
2022-10-22T10:24:31.314Z,78.71
2022-10-22T10:27:15.974Z,78.81
2022-10-22T10:30:24.350Z,80.70
2022-10-22T10:33:05.837Z,78.55
2022-10-22T10:35:55.188Z,78.03
2022-10-22T10:38:31.393Z,78.85
2022-10-22T10:41:07.581Z,78.08
2022-10-22T10:43:44.040Z,76.04
2022-10-22T10:46:20.300Z,75.79
2022-10-22T10:48:59.793Z,75.03
2022-10-22T10:51:36.195Z,74.15
2022-10-22T10:54:21.488Z,74.46
2022-10-22T10:56:53.442Z,72.87
2022-10-22T10:59:41.901Z,73.01
2022-10-22T11:02:08.325Z,72.44
2022-10-22T11:04:53.149Z,72.92
2022-10-22T11:07:34.655Z,73.54
2022-10-22T11:10:28.123Z,72.76
2022-10-22T11:12:59.530Z,72.61
2022-10-22T11:15:36.033Z,71.96
2022-10-22T11:18:25.464Z,72.93
2022-10-22T11:21:04.091Z,72.90
2022-10-22T11:23:38.394Z,73.41
2022-10-22T11:26:08.023Z,73.79
2022-10-22T11:28:40.212Z,74.71
2022-10-22T11:31:19.184Z,74.05
2022-10-22T11:34:00.540Z,73.02
2022-10-22T11:36:37.162Z,72.33
2022-10-22T11:39:04.493Z,71.42
2022-10-22T11:41:32.364Z,71.10
2022-10-22T11:44:12.679Z,70.25
2022-10-22T11:46:57.325Z,68.98
2022-10-22T11:49:28.776Z,68.07
2022-10-22T11:52:26.275Z,68.83
2022-10-22T11:54:58.337Z,68.41
2022-10-22T11:57:38.534Z,66.40
2022-10-22T12:00:41.275Z,67.51
2022-10-22T12:03:42.924Z,69.20
2022-10-22T12:06:12.397Z,68.52
2022-10-22T12:08:57.314Z,68.96
2022-10-22T12:11:25.255Z,68.09
2022-10-22T12:14:03.852Z,67.13
2022-10-22T12:16:54.778Z,68.56
2022-10-22T12:19:22.672Z,68.07
2022-10-22T12:21:54.188Z,68.51
2022-10-22T12:24:23.889Z,66.77
2022-10-22T12:26:52.667Z,65.43
2022-10-22T12:29:26.841Z,65.58
2022-10-22T12:31:55.100Z,67.14
2022-10-22T12:34:24.081Z,68.18
2022-10-22T12:36:52.451Z,68.39
2022-10-22T12:39:26.172Z,66.78
2022-10-22T12:41:54.010Z,68.64
2022-10-22T12:44:20.623Z,68.17
2022-10-22T12:46:52.953Z,68.75
2022-10-22T12:49:35.493Z,67.74
2022-10-22T12:52:10.821Z,69.90
2022-10-22T12:54:40.061Z,71.01
2022-10-22T12:57:10.210Z,71.96
2022-10-22T12:59:38.297Z,70.92
2022-10-22T13:02:16.243Z,72.26
2022-10-22T13:04:42.795Z,72.65
2022-10-22T13:07:12.271Z,70.61
2022-10-22T13:09:40.181Z,72.28
2022-10-22T13:12:08.586Z,71.35
2022-10-22T13:14:38.178Z,70.09
2022-10-22T13:17:08.065Z,70.40
2022-10-22T13:19:54.177Z,69.81
2022-10-22T13:22:32.809Z,69.87
2022-10-22T13:25:14.674Z,71.23
2022-10-22T13:27:49.038Z,71.81
2022-10-22T13:30:25.092Z,71.80
2022-10-22T13:33:00.128Z,71.14
2022-10-22T13:35:29.747Z,71.50
2022-10-22T13:37:56.196Z,71.53
2022-10-22T13:40:22.896Z,70.22
2022-10-22T13:42:49.464Z,72.61
2022-10-22T13:45:16.630Z,71.53
2022-10-22T13:47:48.371Z,73.27
2022-10-22T13:50:17.620Z,72.34
2022-10-22T13:52:48.028Z,73.10
2022-10-22T13:55:25.500Z,73.48
2022-10-22T13:57:53.614Z,72.54
2022-10-22T14:00:21.693Z,72.20
2022-10-22T14:02:50.273Z,72.12
2022-10-22T14:05:17.847Z,71.41
2022-10-22T14:07:44.846Z,71.81
2022-10-22T14:10:22.094Z,72.06
2022-10-22T14:12:52.445Z,71.89
2022-10-22T14:15:24.019Z,73.28
2022-10-22T14:17:54.890Z,72.68
2022-10-22T14:20:23.386Z,72.70
2022-10-22T14:22:51.099Z,71.90
2022-10-22T14:25:20.279Z,72.45
2022-10-22T14:27:47.276Z,72.07
2022-10-22T14:30:15.865Z,72.60
2022-10-22T14:32:43.100Z,75.50
2022-10-22T14:35:14.466Z,75.38
2022-10-22T14:37:40.963Z,76.11
2022-10-22T14:40:08.979Z,75.95
2022-10-22T14:42:41.735Z,76.44
2022-10-22T14:45:21.839Z,75.40
2022-10-22T14:47:49.215Z,76.64
2022-10-22T14:50:16.320Z,76.67
2022-10-22T14:52:43.750Z,74.79
2022-10-22T14:55:12.235Z,74.26
2022-10-22T14:57:39.681Z,74.00
2022-10-22T15:00:09.070Z,73.57
2022-10-22T15:02:35.543Z,74.73
2022-10-22T15:05:01.987Z,73.63
2022-10-22T15:07:28.508Z,73.41
2022-10-22T15:09:54.971Z,76.06
2022-10-22T15:12:21.476Z,74.91
2022-10-22T15:14:48.328Z,76.66
2022-10-22T15:17:15.837Z,73.37
2022-10-22T15:19:43.621Z,74.32
2022-10-22T15:22:13.172Z,73.84
2022-10-22T15:24:40.418Z,71.92
2022-10-22T15:27:06.950Z,73.00
2022-10-22T15:29:33.552Z,72.59
2022-10-22T15:32:00.660Z,73.41
2022-10-22T15:34:29.385Z,74.07
2022-10-22T15:36:57.903Z,73.49
2022-10-22T15:39:24.692Z,72.61
2022-10-22T15:41:51.745Z,72.69
2022-10-22T15:44:20.509Z,72.96
2022-10-22T15:46:47.029Z,73.58
2022-10-22T15:49:14.753Z,73.97
2022-10-22T15:51:41.236Z,73.62
2022-10-22T15:54:13.176Z,73.93
2022-10-22T15:56:39.803Z,72.98
2022-10-22T15:59:06.565Z,72.40
2022-10-22T16:01:34.205Z,72.95
2022-10-22T16:04:02.683Z,73.22
2022-10-22T16:06:34.633Z,74.06
2022-10-22T16:09:04.049Z,75.81
2022-10-22T16:11:30.896Z,76.18
2022-10-22T16:13:58.747Z,75.90
2022-10-22T16:16:27.282Z,76.27
2022-10-22T16:18:53.901Z,75.13
2022-10-22T16:21:21.608Z,75.29
2022-10-22T16:23:48.810Z,75.01
2022-10-22T16:26:16.423Z,74.80
2022-10-22T16:28:43.629Z,76.44
2022-10-22T16:31:12.428Z,76.16
2022-10-22T16:33:43.083Z,76.49
2022-10-22T16:36:14.456Z,75.31
2022-10-22T16:38:41.072Z,75.05
2022-10-22T16:41:11.801Z,76.18
2022-10-22T16:43:38.870Z,75.95
2022-10-22T16:46:06.088Z,76.49
2022-10-22T16:48:33.227Z,76.32
2022-10-22T16:51:00.791Z,75.42
2022-10-22T16:53:27.265Z,77.35
2022-10-22T16:55:53.752Z,75.57
2022-10-22T16:58:20.184Z,76.22
2022-10-22T17:00:46.670Z,75.72
2022-10-22T17:03:13.318Z,77.81
2022-10-22T17:05:39.802Z,78.27
2022-10-22T17:08:06.287Z,78.50
2022-10-22T17:10:32.772Z,76.45
2022-10-22T17:12:59.257Z,77.63
2022-10-22T17:15:25.848Z,77.57
2022-10-22T17:17:53.753Z,78.31
2022-10-22T17:20:20.232Z,78.70
2022-10-22T17:22:47.041Z,77.92
2022-10-22T17:25:19.950Z,78.69
2022-10-22T17:27:46.386Z,79.69
2022-10-22T17:30:15.847Z,80.12
2022-10-22T17:32:44.110Z,80.60
2022-10-22T17:35:12.372Z,78.79
2022-10-22T17:37:39.241Z,79.29
2022-10-22T17:40:06.617Z,80.03
2022-10-22T17:42:33.145Z,80.75
2022-10-22T17:44:59.698Z,79.40
2022-10-22T17:47:26.163Z,79.46
2022-10-22T17:49:53.787Z,79.61
2022-10-22T17:52:20.337Z,81.48
2022-10-22T17:54:48.462Z,78.45
2022-10-22T17:57:14.899Z,81.29
2022-10-22T17:59:41.367Z,79.87
2022-10-22T18:02:10.331Z,78.90
2022-10-22T18:04:36.793Z,81.76
2022-10-22T18:07:03.248Z,80.87
2022-10-22T18:09:29.728Z,80.39
2022-10-22T18:11:56.200Z,81.68
2022-10-22T18:14:23.354Z,81.43
2022-10-22T18:16:50.592Z,80.82
2022-10-22T18:19:19.560Z,80.73
2022-10-22T18:21:46.599Z,80.35
2022-10-22T18:24:15.278Z,80.66
2022-10-22T18:26:42.329Z,81.99
2022-10-22T18:29:10.578Z,82.03
2022-10-22T18:31:37.181Z,80.58
2022-10-22T18:34:03.686Z,81.04
2022-10-22T18:36:30.158Z,81.27
2022-10-22T18:38:58.961Z,80.19
2022-10-22T18:41:26.782Z,81.36
2022-10-22T18:43:58.529Z,82.68
2022-10-22T18:46:25.701Z,82.81
2022-10-22T18:48:53.526Z,82.11
2022-10-22T18:51:20.388Z,83.61
2022-10-22T18:53:59.197Z,82.37
2022-10-22T18:56:36.564Z,80.29
2022-10-22T18:59:03.037Z,81.97
2022-10-22T19:01:29.698Z,82.03
2022-10-22T19:03:56.668Z,80.77
2022-10-22T19:06:33.312Z,81.72
2022-10-22T19:09:04.291Z,81.59
2022-10-22T19:11:31.134Z,82.22
2022-10-22T19:13:58.083Z,82.02
2022-10-22T19:16:24.631Z,81.15
2022-10-22T19:18:52.362Z,81.24
2022-10-22T19:21:20.036Z,81.92
2022-10-22T19:23:46.601Z,81.02
2022-10-22T19:26:16.302Z,82.29
2022-10-22T19:28:43.800Z,81.85
2022-10-22T19:31:12.742Z,81.78
2022-10-22T19:33:40.080Z,80.13
2022-10-22T19:36:08.722Z,81.75
2022-10-22T19:38:37.815Z,82.29
2022-10-22T19:41:09.373Z,82.22
2022-10-22T19:43:36.033Z,83.11
2022-10-22T19:46:04.125Z,82.89
2022-10-22T19:48:30.653Z,81.33
2022-10-22T19:51:17.881Z,81.49
2022-10-22T19:53:44.859Z,81.18
2022-10-22T19:56:12.149Z,82.67
2022-10-22T19:58:39.300Z,81.06
2022-10-22T20:01:07.188Z,82.22
2022-10-22T20:03:36.225Z,82.09
2022-10-22T20:06:05.319Z,81.17
2022-10-22T20:08:34.458Z,80.68
2022-10-22T20:11:01.028Z,80.61
2022-10-22T20:13:27.641Z,81.40
2022-10-22T20:15:54.166Z,81.52
2022-10-22T20:18:22.417Z,81.32
2022-10-22T20:20:49.363Z,80.67
2022-10-22T20:23:16.021Z,80.88
2022-10-22T20:25:44.258Z,81.44
2022-10-22T20:28:11.471Z,81.17
2022-10-22T20:30:42.708Z,80.67
2022-10-22T20:33:09.348Z,81.61
2022-10-22T20:35:37.434Z,83.61
2022-10-22T20:38:05.269Z,86.66
2022-10-22T20:40:32.710Z,85.15
2022-10-22T20:43:00.728Z,83.71
2022-10-22T20:45:28.116Z,85.46
2022-10-22T20:48:02.146Z,85.40
2022-10-22T20:50:31.985Z,88.09
2022-10-22T20:52:59.048Z,83.81
2022-10-22T20:55:25.863Z,82.35
2022-10-22T20:57:52.498Z,84.25
2022-10-22T21:00:22.200Z,84.07
2022-10-22T21:02:50.358Z,82.45
2022-10-22T21:05:17.277Z,84.17
2022-10-22T21:07:44.163Z,82.23
2022-10-22T21:10:11.573Z,84.67
2022-10-22T21:12:42.036Z,84.50
2022-10-22T21:15:12.509Z,82.19
2022-10-22T21:17:40.863Z,82.71
2022-10-22T21:20:08.278Z,83.11
2022-10-22T21:22:35.464Z,84.40
2022-10-22T21:25:02.184Z,81.25
2022-10-22T21:27:28.686Z,82.11
2022-10-22T21:29:55.143Z,80.10
2022-10-22T21:32:21.590Z,81.04
2022-10-22T21:34:48.053Z,80.58
2022-10-22T21:37:14.504Z,79.45
2022-10-22T21:39:42.148Z,80.84
2022-10-22T21:42:09.022Z,81.20
2022-10-22T21:44:35.490Z,80.64
2022-10-22T21:47:02.768Z,81.70
2022-10-22T21:49:29.207Z,79.75
2022-10-22T21:51:55.750Z,80.29
2022-10-22T21:54:22.207Z,80.23
2022-10-22T21:56:49.105Z,81.07
2022-10-22T21:59:15.887Z,80.94
2022-10-22T22:01:42.472Z,80.95
2022-10-22T22:04:09.024Z,79.96
2022-10-22T22:06:35.554Z,80.23
2022-10-22T22:09:03.458Z,79.73
2022-10-22T22:11:30.376Z,79.88
2022-10-22T22:13:57.810Z,79.88
2022-10-22T22:16:28.605Z,79.66
2022-10-22T22:18:57.196Z,80.44
2022-10-22T22:21:23.781Z,80.67
2022-10-22T22:23:51.063Z,80.16
2022-10-22T22:26:25.224Z,80.07
2022-10-22T22:28:55.027Z,81.08
2022-10-22T22:31:25.953Z,80.44
2022-10-22T22:34:01.335Z,80.18
2022-10-22T22:36:27.920Z,80.75
2022-10-22T22:38:56.293Z,81.26
2022-10-22T22:41:22.933Z,81.32
2022-10-22T22:43:49.528Z,80.45
2022-10-22T22:46:17.291Z,80.74
2022-10-22T22:48:43.834Z,79.90
2022-10-22T22:51:10.495Z,80.36
2022-10-22T22:53:36.976Z,81.29
2022-10-22T22:56:10.413Z,81.42
2022-10-22T22:58:38.347Z,80.52
2022-10-22T23:01:15.506Z,81.01
2022-10-22T23:03:42.933Z,83.26
2022-10-22T23:06:09.700Z,82.46
2022-10-22T23:08:37.515Z,81.63
2022-10-22T23:11:10.108Z,80.01
2022-10-22T23:13:37.151Z,81.54
2022-10-22T23:16:08.432Z,81.49
2022-10-22T23:18:35.273Z,81.25
2022-10-22T23:21:12.968Z,81.78
2022-10-22T23:23:42.844Z,82.57
2022-10-22T23:26:12.099Z,81.28
2022-10-22T23:28:38.592Z,81.35
2022-10-22T23:31:05.270Z,81.72
2022-10-22T23:33:31.750Z,82.59
2022-10-22T23:36:01.317Z,82.12
2022-10-22T23:38:28.215Z,82.29
2022-10-22T23:40:56.570Z,82.75
2022-10-22T23:43:24.304Z,81.66
2022-10-22T23:45:50.989Z,82.46
2022-10-22T23:48:17.874Z,81.75
2022-10-22T23:50:44.532Z,82.63
2022-10-22T23:53:11.172Z,81.25
2022-10-22T23:55:41.482Z,81.63
2022-10-22T23:58:08.578Z,81.29
